Time;durP1;ratioP1;P1;durP2;ratioP2;P2;SDS_P1;SDS_P2;PMS_P1;PMS_P2;Temp;Humidity;BMP_temperature;BMP_pressure;BME280_temperature;BME280_humidity;BME280_pressure;Samples;Min_cycle;Max_cycle;Signal;HPM_P1;HPM_P2
2023/09/04 00:01:46;;;;;;;4.33;3.67;;;;;;;;;;5019492;28;20241;-77
2023/09/04 00:04:12;;;;;;;3.73;3.43;;;;;;;;;;5018612;28;20190;-76
2023/09/04 00:06:38;;;;;;;3.73;3.33;;;;;;;;;;5011949;28;20712;-76
2023/09/04 00:09:04;;;;;;;3.70;3.40;;;;;;;;;;5016038;28;20207;-77
2023/09/04 00:11:31;;;;;;;4.27;3.60;;;;;;;;;;5015374;28;20233;-76
2023/09/04 00:13:58;;;;;;;5.07;3.30;;;;;;;;;;5015594;28;20269;-76
2023/09/04 00:16:24;;;;;;;4.13;3.43;;;;;;;;;;5014649;28;20270;-77
2023/09/04 00:18:50;;;;;;;3.87;3.47;;;;;;;;;;5012539;28;20179;-77
2023/09/04 00:21:16;;;;;;;3.43;3.13;;;;;;;;;;5015118;28;20257;-76
2023/09/04 00:23:42;;;;;;;3.60;3.30;;;;;;;;;;5016667;28;20210;-76
2023/09/04 00:26:08;;;;;;;4.30;3.50;;;;;;;;;;5020442;28;20209;-76
2023/09/04 00:28:34;;;;;;;3.70;3.40;;;;;;;;;;5019251;28;20183;-76
2023/09/04 00:31:01;;;;;;;4.27;3.87;;;;;;;;;;5022145;28;20232;-76
2023/09/04 00:33:27;;;;;;;4.67;3.67;;;;;;;;;;5020197;28;20183;-76
2023/09/04 00:35:53;;;;;;;3.70;3.40;;;;;;;;;;5013769;28;20187;-76
2023/09/04 00:38:19;;;;;;;5.43;4.10;;;;;;;;;;5017409;28;20190;-76
2023/09/04 00:40:46;;;;;;;3.80;3.50;;;;;;;;;;5011806;28;20183;-76
2023/09/04 00:43:12;;;;;;;7.23;3.43;;;;;;;;;;5016592;28;20214;-76
2023/09/04 00:45:38;;;;;;;3.83;3.40;;;;;;;;;;5013766;28;20179;-76
2023/09/04 00:48:05;;;;;;;3.77;3.30;;;;;;;;;;5013456;28;20180;-76
2023/09/04 00:50:32;;;;;;;6.27;3.50;;;;;;;;;;5023493;28;20182;-76
2023/09/04 00:53:03;;;;;;;3.80;3.50;;;;;;;;;;5013606;28;20221;-76
2023/09/04 00:55:29;;;;;;;4.77;3.60;;;;;;;;;;5015241;28;20237;-76
2023/09/04 00:57:56;;;;;;;4.27;3.87;;;;;;;;;;5023153;28;20187;-76
2023/09/04 01:00:25;;;;;;;3.70;3.40;;;;;;;;;;5016493;28;20210;-76
2023/09/04 01:02:51;;;;;;;3.93;3.63;;;;;;;;;;5015558;28;20264;-76
2023/09/04 01:05:17;;;;;;;3.97;3.50;;;;;;;;;;5020085;28;20297;-76
2023/09/04 01:07:44;;;;;;;6.03;3.93;;;;;;;;;;5018122;28;20171;-76
2023/09/04 01:10:11;;;;;;;4.00;3.40;;;;;;;;;;5012105;28;20187;-76
2023/09/04 01:12:58;;;;;;;4.33;3.43;;;;;;;;;;5011661;28;20211;-76
2023/09/04 01:15:26;;;;;;;4.77;3.80;;;;;;;;;;5015618;28;20191;-76
2023/09/04 01:17:53;;;;;;;4.03;3.60;;;;;;;;;;5015501;28;20190;-76
2023/09/04 01:20:26;;;;;;;4.30;3.90;;;;;;;;;;5014158;28;20198;-76
2023/09/04 01:22:53;;;;;;;4.83;4.13;;;;;;;;;;5017881;28;20985;-77
2023/09/04 01:25:20;;;;;;;4.37;3.73;;;;;;;;;;5026160;28;20213;-77
2023/09/04 01:27:50;;;;;;;4.00;3.70;;;;;;;;;;5019038;28;20317;-76
2023/09/04 01:30:33;;;;;;;4.03;3.63;;;;;;;;;;5030765;28;20557;-76
2023/09/04 01:33:02;;;;;;;4.17;3.70;;;;;;;;;;5022903;28;20214;-76
2023/09/04 01:35:30;;;;;;;3.70;3.40;;;;;;;;;;5024262;28;20183;-76
2023/09/04 01:37:56;;;;;;;3.67;3.37;;;;;;;;;;5019822;28;20198;-76
2023/09/04 01:40:23;;;;;;;3.60;3.27;;;;;;;;;;5013979;28;20194;-76
2023/09/04 01:42:49;;;;;;;3.90;3.60;;;;;;;;;;5015722;28;20213;-76
2023/09/04 01:45:15;;;;;;;3.70;3.40;;;;;;;;;;5022229;28;20191;-76
2023/09/04 01:47:41;;;;;;;3.30;3.00;;;;;;;;;;5017807;28;20175;-77
2023/09/04 01:50:08;;;;;;;3.77;3.47;;;;;;;;;;5019819;28;20281;-77
2023/09/04 01:52:34;;;;;;;4.30;3.50;;;;;;;;;;5016998;28;20302;-77
2023/09/04 01:55:00;;;;;;;4.20;3.80;;;;;;;;;;5028740;28;20187;-76
2023/09/04 01:57:26;;;;;;;4.60;4.20;;;;;;;;;;5027987;28;20554;-76
2023/09/04 01:59:52;;;;;;;6.07;4.23;;;;;;;;;;5016626;28;20182;-76
2023/09/04 02:02:18;;;;;;;4.03;3.63;;;;;;;;;;5018758;28;20246;-76
2023/09/04 02:04:44;;;;;;;4.10;3.70;;;;;;;;;;5022198;28;20713;-76
2023/09/04 02:07:10;;;;;;;3.73;3.43;;;;;;;;;;5015721;28;20325;-76
2023/09/04 02:09:37;;;;;;;3.90;3.60;;;;;;;;;;5016491;28;20234;-77
2023/09/04 02:12:03;;;;;;;4.00;3.40;;;;;;;;;;5018438;28;20199;-76
2023/09/04 02:14:29;;;;;;;3.90;3.60;;;;;;;;;;5011122;28;20241;-76
2023/09/04 02:16:55;;;;;;;4.17;3.40;;;;;;;;;;5019863;28;20668;-76
2023/09/04 02:19:22;;;;;;;4.07;3.70;;;;;;;;;;5023821;28;20194;-77
2023/09/04 02:21:48;;;;;;;5.53;3.60;;;;;;;;;;5015297;28;20223;-76
2023/09/04 02:24:14;;;;;;;4.43;4.03;;;;;;;;;;5011656;28;20191;-76
2023/09/04 02:26:40;;;;;;;4.57;4.17;;;;;;;;;;5026650;28;20202;-76
2023/09/04 02:29:07;;;;;;;3.60;3.30;;;;;;;;;;5018328;28;20178;-76
2023/09/04 02:31:33;;;;;;;3.83;3.43;;;;;;;;;;5014872;28;20599;-76
2023/09/04 02:33:59;;;;;;;5.30;3.90;;;;;;;;;;5016532;28;20230;-76
2023/09/04 02:36:26;;;;;;;4.50;3.57;;;;;;;;;;5020214;28;20207;-76
2023/09/04 02:38:52;;;;;;;3.80;3.40;;;;;;;;;;5019113;28;20185;-76
2023/09/04 02:41:18;;;;;;;4.57;3.73;;;;;;;;;;5027815;28;20206;-76
2023/09/04 02:43:44;;;;;;;4.50;4.10;;;;;;;;;;5013389;28;20203;-76
2023/09/04 02:46:11;;;;;;;5.17;4.67;;;;;;;;;;5019507;28;20197;-76
2023/09/04 02:48:38;;;;;;;4.80;4.40;;;;;;;;;;5016496;28;20182;-76
2023/09/04 02:51:06;;;;;;;4.53;4.13;;;;;;;;;;5015922;28;20233;-77
2023/09/04 02:53:32;;;;;;;4.67;4.27;;;;;;;;;;5023841;28;20190;-76
2023/09/04 02:55:59;;;;;;;4.40;4.00;;;;;;;;;;5010516;28;20274;-76
2023/09/04 02:58:25;;;;;;;6.67;4.23;;;;;;;;;;5021074;28;20241;-76
2023/09/04 03:00:52;;;;;;;4.43;4.03;;;;;;;;;;5021212;28;20296;-76
2023/09/04 03:03:21;;;;;;;4.60;4.20;;;;;;;;;;5016045;28;20229;-76
2023/09/04 03:05:47;;;;;;;4.70;4.23;;;;;;;;;;5011445;28;20256;-76
2023/09/04 03:08:13;;;;;;;5.07;4.27;;;;;;;;;;5024784;28;20218;-76
2023/09/04 03:10:40;;;;;;;4.93;4.43;;;;;;;;;;5024105;28;20618;-76
2023/09/04 03:13:07;;;;;;;4.77;3.90;;;;;;;;;;5017729;28;20246;-76
2023/09/04 03:15:34;;;;;;;5.33;4.20;;;;;;;;;;5024768;28;20187;-76
2023/09/04 03:18:00;;;;;;;4.53;4.10;;;;;;;;;;5016430;28;20194;-77
2023/09/04 03:20:26;;;;;;;4.33;3.93;;;;;;;;;;5022205;28;20183;-76
2023/09/04 03:22:56;;;;;;;4.40;4.00;;;;;;;;;;5014098;28;20225;-76
2023/09/04 03:25:22;;;;;;;5.00;4.50;;;;;;;;;;5020142;28;20365;-76
2023/09/04 03:27:48;;;;;;;4.33;3.93;;;;;;;;;;5016806;28;20186;-76
2023/09/04 03:30:16;;;;;;;4.47;4.07;;;;;;;;;;5027071;28;20277;-76
2023/09/04 03:32:44;;;;;;;4.67;4.27;;;;;;;;;;5017228;28;20207;-76
2023/09/04 03:35:12;;;;;;;4.63;4.13;;;;;;;;;;5020790;28;20186;-77
2023/09/04 03:37:39;;;;;;;5.07;4.63;;;;;;;;;;5017546;28;20187;-76
2023/09/04 03:40:22;;;;;;;4.80;4.40;;;;;;;;;;5012467;28;20194;-75
2023/09/04 03:42:48;;;;;;;5.13;4.13;;;;;;;;;;5018301;28;20242;-75
2023/09/04 03:45:15;;;;;;;4.70;4.30;;;;;;;;;;5024217;28;20234;-75
2023/09/04 03:47:42;;;;;;;4.40;4.00;;;;;;;;;;5019282;28;20257;-75
2023/09/04 03:50:12;;;;;;;4.60;4.20;;;;;;;;;;5018644;28;20190;-75
2023/09/04 03:52:39;;;;;;;4.57;4.13;;;;;;;;;;5031298;22;20237;-78
2023/09/04 03:55:06;;;;;;;4.93;4.53;;;;;;;;;;5015387;28;20190;-79
2023/09/04 03:57:34;;;;;;;4.77;4.37;;;;;;;;;;5028920;28;20182;-79
2023/09/04 04:00:00;;;;;;;5.17;4.67;;;;;;;;;;5027789;28;20194;-78
2023/09/04 04:02:26;;;;;;;5.40;4.50;;;;;;;;;;5018465;28;20302;-79
2023/09/04 04:04:53;;;;;;;5.03;4.57;;;;;;;;;;5008733;28;20198;-79
2023/09/04 04:07:19;;;;;;;6.83;4.70;;;;;;;;;;5005882;28;20191;-79
2023/09/04 04:09:47;;;;;;;5.18;4.55;;;;;;;;;;5006294;28;20526;-79
2023/09/04 04:12:14;;;;;;;5.20;4.70;;;;;;;;;;4993535;28;20187;-79
2023/09/04 04:14:41;;;;;;;4.73;4.30;;;;;;;;;;5009347;28;20558;-79
2023/09/04 04:17:08;;;;;;;5.50;4.23;;;;;;;;;;4998916;28;20250;-79
2023/09/04 04:19:34;;;;;;;4.80;4.40;;;;;;;;;;4991485;28;20223;-79
2023/09/04 04:22:01;;;;;;;4.80;4.40;;;;;;;;;;4989997;28;20208;-78
2023/09/04 04:24:27;;;;;;;4.50;4.10;;;;;;;;;;4987555;28;20215;-79
2023/09/04 04:26:53;;;;;;;4.43;4.03;;;;;;;;;;5014475;28;20262;-79
2023/09/04 04:29:20;;;;;;;4.90;3.90;;;;;;;;;;4996484;28;20237;-78
2023/09/04 04:31:47;;;;;;;4.33;3.93;;;;;;;;;;5008474;28;20665;-78
2023/09/04 04:34:13;;;;;;;4.67;4.27;;;;;;;;;;5002326;28;20208;-78
2023/09/04 04:36:39;;;;;;;4.40;4.00;;;;;;;;;;5017009;28;20187;-79
2023/09/04 04:39:05;;;;;;;4.63;4.13;;;;;;;;;;5006786;28;20641;-79
2023/09/04 04:41:32;;;;;;;4.63;4.20;;;;;;;;;;5008362;28;20176;-79
2023/09/04 04:43:58;;;;;;;5.80;4.20;;;;;;;;;;4972811;28;20333;-79
2023/09/04 04:46:25;;;;;;;4.93;4.03;;;;;;;;;;5010816;28;20199;-78
2023/09/04 04:48:51;;;;;;;4.93;4.00;;;;;;;;;;5008512;28;20179;-78
2023/09/04 04:51:19;;;;;;;4.37;3.73;;;;;;;;;;5003450;28;20187;-78
2023/09/04 04:53:45;;;;;;;3.97;3.67;;;;;;;;;;4981163;28;20675;-79
2023/09/04 04:56:11;;;;;;;4.63;4.13;;;;;;;;;;5010695;28;20214;-79
2023/09/04 04:58:38;;;;;;;4.47;4.07;;;;;;;;;;5009054;28;20187;-79
2023/09/04 05:01:07;;;;;;;4.37;3.97;;;;;;;;;;5011874;28;20187;-78
2023/09/04 05:03:34;;;;;;;5.00;4.17;;;;;;;;;;4993949;28;20298;-79
2023/09/04 05:06:02;;;;;;;4.30;3.90;;;;;;;;;;5018557;28;20237;-78
2023/09/04 05:08:28;;;;;;;4.10;3.70;;;;;;;;;;5024131;28;20437;-78
2023/09/04 05:11:05;;;;;;;3.97;3.67;;;;;;;;;;5032273;28;20179;-78
2023/09/04 05:13:34;;;;;;;4.43;4.00;;;;;;;;;;5015428;28;20273;-79
2023/09/04 05:16:04;;;;;;;4.70;4.30;;;;;;;;;;5015100;28;20193;-79
2023/09/04 05:18:33;;;;;;;4.27;3.87;;;;;;;;;;5003034;28;20244;-80
2023/09/04 05:20:59;;;;;;;4.30;3.90;;;;;;;;;;5018068;28;20190;-80
2023/09/04 05:23:25;;;;;;;4.53;3.90;;;;;;;;;;5014778;28;20222;-81
2023/09/04 05:25:52;;;;;;;4.00;3.70;;;;;;;;;;5012109;28;20650;-79
2023/09/04 05:28:19;;;;;;;4.47;4.00;;;;;;;;;;5020303;28;20193;-81
2023/09/04 05:30:45;;;;;;;4.57;4.07;;;;;;;;;;5022846;28;20222;-79
2023/09/04 05:33:11;;;;;;;4.43;4.03;;;;;;;;;;5024673;28;20727;-82
2023/09/04 05:35:37;;;;;;;4.33;3.83;;;;;;;;;;5002023;28;20246;-79
2023/09/04 05:38:03;;;;;;;5.33;3.80;;;;;;;;;;5008803;28;20287;-79
2023/09/04 05:40:30;;;;;;;6.87;4.33;;;;;;;;;;5003110;28;20193;-79
2023/09/04 05:42:58;;;;;;;5.90;4.37;;;;;;;;;;5015275;28;20226;-79
2023/09/04 05:45:25;;;;;;;6.63;5.03;;;;;;;;;;5006508;28;20212;-79
2023/09/04 05:47:51;;;;;;;4.90;4.40;;;;;;;;;;5002606;28;20250;-79
2023/09/04 05:50:17;;;;;;;5.87;5.10;;;;;;;;;;5004268;28;20199;-79
2023/09/04 05:52:44;;;;;;;9.30;4.90;;;;;;;;;;5007872;28;20245;-79
2023/09/04 05:55:10;;;;;;;5.67;4.40;;;;;;;;;;4973518;28;20582;-79
2023/09/04 05:57:37;;;;;;;7.57;5.20;;;;;;;;;;5008286;28;20202;-79
2023/09/04 06:00:07;;;;;;;5.97;4.67;;;;;;;;;;5004442;28;20191;-78
2023/09/04 06:02:38;;;;;;;5.10;4.60;;;;;;;;;;5009406;28;20218;-79
2023/09/04 06:05:05;;;;;;;5.07;4.50;;;;;;;;;;5011004;28;20179;-79
2023/09/04 06:07:32;;;;;;;6.70;4.90;;;;;;;;;;5005386;28;20180;-79
2023/09/04 06:09:58;;;;;;;6.97;4.53;;;;;;;;;;5018489;28;20174;-80
2023/09/04 06:12:24;;;;;;;4.80;4.30;;;;;;;;;;5004064;28;20310;-79
2023/09/04 06:14:50;;;;;;;5.50;4.50;;;;;;;;;;5005761;28;20218;-79
2023/09/04 06:17:17;;;;;;;7.00;5.20;;;;;;;;;;5004362;28;20267;-79
2023/09/04 06:19:43;;;;;;;5.37;4.60;;;;;;;;;;5004207;28;21022;-79
2023/09/04 06:22:09;;;;;;;7.10;4.87;;;;;;;;;;5004414;28;20294;-79
2023/09/04 06:24:36;;;;;;;5.17;4.67;;;;;;;;;;5011208;28;20243;-79
2023/09/04 06:27:02;;;;;;;5.57;4.53;;;;;;;;;;5006414;28;20255;-80
2023/09/04 06:29:28;;;;;;;4.77;4.37;;;;;;;;;;5005960;28;20184;-80
2023/09/04 06:31:54;;;;;;;4.87;4.37;;;;;;;;;;4979304;28;20192;-80
2023/09/04 06:34:21;;;;;;;8.27;4.70;;;;;;;;;;5007746;28;20208;-80
2023/09/04 06:36:47;;;;;;;6.77;5.17;;;;;;;;;;5004620;28;20274;-80
2023/09/04 06:39:13;;;;;;;5.40;4.63;;;;;;;;;;4995108;28;20187;-80
2023/09/04 06:41:39;;;;;;;7.37;4.80;;;;;;;;;;5009056;28;20175;-81
2023/09/04 06:44:06;;;;;;;5.60;4.47;;;;;;;;;;5012195;28;20229;-81
2023/09/04 06:46:32;;;;;;;6.40;4.60;;;;;;;;;;5020649;28;20857;-80
2023/09/04 06:48:58;;;;;;;4.90;4.40;;;;;;;;;;5010451;28;20210;-83
2023/09/04 06:51:25;;;;;;;8.00;4.40;;;;;;;;;;5018686;28;20191;-80
2023/09/04 06:53:51;;;;;;;5.00;4.50;;;;;;;;;;5010453;28;20246;-82
2023/09/04 06:56:18;;;;;;;6.93;5.53;;;;;;;;;;5006187;28;20191;-81
2023/09/04 06:58:44;;;;;;;5.50;5.03;;;;;;;;;;4986512;28;20188;-83
2023/09/04 07:01:10;;;;;;;7.53;5.60;;;;;;;;;;5018194;28;20187;-83
2023/09/04 07:03:37;;;;;;;6.30;4.90;;;;;;;;;;5000944;28;20292;-80
2023/09/04 07:06:03;;;;;;;4.53;4.07;;;;;;;;;;4999464;28;20188;-79
2023/09/04 07:08:31;;;;;;;5.70;3.80;;;;;;;;;;4997542;28;20190;-79
2023/09/04 07:10:57;;;;;;;5.47;3.70;;;;;;;;;;5003211;28;20235;-79
2023/09/04 07:13:24;;;;;;;4.10;3.70;;;;;;;;;;4998397;28;20203;-80
2023/09/04 07:15:50;;;;;;;3.50;3.20;;;;;;;;;;4993366;28;20252;-79
2023/09/04 07:18:16;;;;;;;4.70;3.50;;;;;;;;;;4998118;28;20712;-79
2023/09/04 07:20:42;;;;;;;3.23;2.93;;;;;;;;;;5000859;28;20190;-79
2023/09/04 07:23:08;;;;;;;3.60;2.93;;;;;;;;;;5009172;28;20253;-79
2023/09/04 07:25:35;;;;;;;3.23;2.87;;;;;;;;;;5004777;28;20183;-80
2023/09/04 07:28:01;;;;;;;3.13;2.90;;;;;;;;;;5017215;28;20243;-79
2023/09/04 07:30:27;;;;;;;3.40;3.10;;;;;;;;;;5005036;28;20209;-79
2023/09/04 07:32:53;;;;;;;2.80;2.60;;;;;;;;;;5006276;28;20250;-79
2023/09/04 07:35:19;;;;;;;3.10;2.80;;;;;;;;;;4997759;28;20205;-80
2023/09/04 07:37:46;;;;;;;3.60;3.00;;;;;;;;;;4985517;28;20218;-79
2023/09/04 07:40:12;;;;;;;3.40;3.00;;;;;;;;;;4998595;28;20187;-79
2023/09/04 07:42:40;;;;;;;3.47;3.03;;;;;;;;;;5003422;28;20211;-78
2023/09/04 07:45:06;;;;;;;3.50;3.20;;;;;;;;;;5002877;28;22046;-78
2023/09/04 07:47:32;;;;;;;3.30;3.00;;;;;;;;;;5003952;28;20867;-79
2023/09/04 07:49:59;;;;;;;3.40;3.10;;;;;;;;;;4996007;28;20191;-78
2023/09/04 07:52:25;;;;;;;3.30;3.00;;;;;;;;;;4998545;28;20246;-79
2023/09/04 07:54:51;;;;;;;5.43;3.17;;;;;;;;;;5005160;28;21409;-79
2023/09/04 07:57:17;;;;;;;3.10;2.80;;;;;;;;;;5010546;28;20193;-79
2023/09/04 07:59:43;;;;;;;3.53;3.23;;;;;;;;;;5004441;28;20194;-79
2023/09/04 08:02:09;;;;;;;3.63;3.00;;;;;;;;;;4999072;28;20207;-79
2023/09/04 08:04:36;;;;;;;3.70;3.40;;;;;;;;;;5006590;28;20678;-79
2023/09/04 08:07:02;;;;;;;4.30;3.37;;;;;;;;;;5004518;28;20187;-79
2023/09/04 08:09:28;;;;;;;3.73;3.00;;;;;;;;;;5011612;28;20188;-79
2023/09/04 08:11:54;;;;;;;2.77;2.57;;;;;;;;;;5008050;28;20191;-79
2023/09/04 08:14:20;;;;;;;3.07;2.77;;;;;;;;;;5008686;28;20199;-79
2023/09/04 08:16:47;;;;;;;3.30;2.80;;;;;;;;;;5009683;28;20187;-79
2023/09/04 08:19:13;;;;;;;2.93;2.70;;;;;;;;;;5012437;28;20191;-79
2023/09/04 08:21:39;;;;;;;3.83;2.60;;;;;;;;;;5003850;28;20179;-79
2023/09/04 08:24:06;;;;;;;3.20;2.77;;;;;;;;;;5003673;28;20278;-80
2023/09/04 08:26:32;;;;;;;2.97;2.67;;;;;;;;;;5005490;28;20179;-79
2023/09/04 08:28:58;;;;;;;3.23;2.63;;;;;;;;;;5007312;28;20315;-79
2023/09/04 08:31:24;;;;;;;2.63;2.43;;;;;;;;;;5005959;28;20198;-79
2023/09/04 08:33:50;;;;;;;2.83;2.63;;;;;;;;;;5006946;28;20752;-79
2023/09/04 08:36:17;;;;;;;3.30;3.00;;;;;;;;;;5008020;28;20646;-79
2023/09/04 08:38:43;;;;;;;2.93;2.70;;;;;;;;;;4997209;28;20191;-79
2023/09/04 08:41:10;;;;;;;2.70;2.50;;;;;;;;;;5004404;28;20191;-79
2023/09/04 08:43:37;;;;;;;2.90;2.60;;;;;;;;;;5013283;28;20353;-79
2023/09/04 08:46:06;;;;;;;2.73;2.53;;;;;;;;;;5007362;28;20258;-79
2023/09/04 08:48:35;;;;;;;3.27;2.70;;;;;;;;;;5013037;28;20633;-79
2023/09/04 08:51:02;;;;;;;3.20;2.90;;;;;;;;;;5023992;28;20171;-79
2023/09/04 08:53:28;;;;;;;2.60;2.30;;;;;;;;;;5014874;28;20983;-79
2023/09/04 08:55:55;;;;;;;4.33;2.77;;;;;;;;;;5008854;28;20425;-79
2023/09/04 08:58:22;;;;;;;2.90;2.70;;;;;;;;;;5016487;28;20187;-79
2023/09/04 09:00:48;;;;;;;3.10;2.80;;;;;;;;;;5010920;28;20197;-79
2023/09/04 09:03:14;;;;;;;3.23;2.83;;;;;;;;;;5007382;28;20222;-79
2023/09/04 09:05:42;;;;;;;3.97;2.77;;;;;;;;;;5007926;28;20183;-79
2023/09/04 09:08:08;;;;;;;2.50;2.30;;;;;;;;;;5008954;28;20241;-79
2023/09/04 09:10:35;;;;;;;2.87;2.43;;;;;;;;;;5005999;28;20194;-79
2023/09/04 09:13:01;;;;;;;2.70;2.40;;;;;;;;;;5016823;28;20239;-79
2023/09/04 09:15:30;;;;;;;3.33;2.40;;;;;;;;;;5009378;28;20654;-79
2023/09/04 09:17:58;;;;;;;2.40;2.20;;;;;;;;;;5007142;28;20187;-79
2023/09/04 09:20:34;;;;;;;2.60;2.40;;;;;;;;;;5014282;28;20184;-79
2023/09/04 09:23:01;;;;;;;2.60;2.40;;;;;;;;;;5008725;28;20302;-79
2023/09/04 09:25:27;;;;;;;2.50;2.30;;;;;;;;;;5010263;28;20179;-79
2023/09/04 09:28:00;;;;;;;2.20;2.00;;;;;;;;;;5012502;28;20703;-80
2023/09/04 09:30:33;;;;;;;2.40;2.20;;;;;;;;;;4988967;28;20734;-79
2023/09/04 09:32:59;;;;;;;2.27;2.07;;;;;;;;;;5005371;28;20224;-79
2023/09/04 09:35:25;;;;;;;2.40;2.20;;;;;;;;;;5001237;28;20250;-79
2023/09/04 09:37:54;;;;;;;2.10;1.97;;;;;;;;;;5008179;28;20183;-79
2023/09/04 09:40:24;;;;;;;2.77;2.30;;;;;;;;;;5010384;28;20184;-80
2023/09/04 09:42:52;;;;;;;1.97;1.83;;;;;;;;;;5016190;28;20686;-79
2023/09/04 09:45:18;;;;;;;2.53;2.17;;;;;;;;;;5007952;28;20187;-79
2023/09/04 09:47:45;;;;;;;3.20;1.83;;;;;;;;;;5016229;28;20284;-79
2023/09/04 09:50:15;;;;;;;2.00;1.90;;;;;;;;;;5015785;28;20207;-80
2023/09/04 09:53:01;;;;;;;2.20;2.00;;;;;;;;;;5010705;28;20267;-79
2023/09/04 09:55:29;;;;;;;4.63;2.13;;;;;;;;;;5006006;28;20528;-79
2023/09/04 09:57:56;;;;;;;2.00;1.80;;;;;;;;;;5022497;28;20275;-79
2023/09/04 10:00:22;;;;;;;2.07;1.87;;;;;;;;;;5019222;28;20197;-80
2023/09/04 10:02:49;;;;;;;2.30;1.83;;;;;;;;;;5048864;22;20709;-80
2023/09/04 10:05:19;;;;;;;1.83;1.67;;;;;;;;;;5037766;28;20215;-77
2023/09/04 10:07:49;;;;;;;3.83;2.20;;;;;;;;;;5027131;28;20525;-77
2023/09/04 10:10:16;;;;;;;2.20;2.00;;;;;;;;;;5036817;28;20180;-77
2023/09/04 10:12:46;;;;;;;2.10;1.90;;;;;;;;;;5023275;28;20201;-77
2023/09/04 10:15:14;;;;;;;1.97;1.80;;;;;;;;;;5011962;28;20526;-77
2023/09/04 10:17:49;;;;;;;2.23;1.93;;;;;;;;;;4990021;28;20196;-77
2023/09/04 10:20:15;;;;;;;3.47;2.03;;;;;;;;;;5011991;28;20213;-76
2023/09/04 10:22:47;;;;;;;2.03;1.87;;;;;;;;;;5010746;28;20213;-76
2023/09/04 10:25:15;;;;;;;2.07;1.80;;;;;;;;;;5012348;28;20191;-76
2023/09/04 10:27:45;;;;;;;3.00;1.70;;;;;;;;;;5011502;28;20184;-76
2023/09/04 10:30:17;;;;;;;3.13;1.80;;;;;;;;;;5011567;28;20190;-76
2023/09/04 10:32:44;;;;;;;2.00;1.80;;;;;;;;;;5009668;28;20203;-76
2023/09/04 10:35:10;;;;;;;3.03;1.90;;;;;;;;;;5010419;28;20198;-77
2023/09/04 10:37:37;;;;;;;2.20;2.00;;;;;;;;;;5010369;28;20185;-78
2023/09/04 10:40:06;;;;;;;2.20;2.00;;;;;;;;;;5008874;28;20321;-78
2023/09/04 10:42:33;;;;;;;2.07;1.80;;;;;;;;;;5026405;28;20223;-78
2023/09/04 10:45:12;;;;;;;2.17;1.97;;;;;;;;;;5011771;28;20180;-76
2023/09/04 10:47:46;;;;;;;3.10;2.00;;;;;;;;;;5009623;28;20248;-78
2023/09/04 10:50:31;;;;;;;2.07;1.87;;;;;;;;;;5008596;28;20196;-78
2023/09/04 10:52:59;;;;;;;3.30;1.90;;;;;;;;;;5010465;28;20214;-78
2023/09/04 10:55:25;;;;;;;1.90;1.70;;;;;;;;;;5009826;28;20325;-78
2023/09/04 10:58:02;;;;;;;2.87;1.80;;;;;;;;;;5010183;28;20206;-78
2023/09/04 11:00:28;;;;;;;2.10;1.77;;;;;;;;;;5010503;28;20195;-78
2023/09/04 11:02:54;;;;;;;1.93;1.80;;;;;;;;;;5009943;28;20221;-78
2023/09/04 11:05:24;;;;;;;2.00;1.80;;;;;;;;;;5012157;28;20193;-78
2023/09/04 11:07:50;;;;;;;1.97;1.63;;;;;;;;;;4991618;28;20252;-78
2023/09/04 11:10:33;;;;;;;2.97;2.23;;;;;;;;;;5009571;28;20191;-79
2023/09/04 11:12:59;;;;;;;8.37;7.20;;;;;;;;;;4991310;28;20308;-78
2023/09/04 11:15:26;;;;;;;6.57;5.87;;;;;;;;;;5010162;28;20611;-78
2023/09/04 11:17:53;;;;;;;6.30;5.53;;;;;;;;;;5014039;28;20175;-78
2023/09/04 11:20:23;;;;;;;6.17;4.43;;;;;;;;;;5015056;28;20240;-77
2023/09/04 11:22:49;;;;;;;3.80;3.50;;;;;;;;;;5015035;28;20856;-78
2023/09/04 11:25:16;;;;;;;3.50;3.03;;;;;;;;;;5011839;28;20242;-77
2023/09/04 11:27:44;;;;;;;2.20;2.00;;;;;;;;;;5010054;28;20183;-78
2023/09/04 11:30:10;;;;;;;2.10;1.90;;;;;;;;;;5004193;28;20183;-78
2023/09/04 11:32:37;;;;;;;3.23;1.90;;;;;;;;;;5006882;28;20754;-78
2023/09/04 11:35:03;;;;;;;2.57;2.37;;;;;;;;;;5024527;28;20208;-78
2023/09/04 11:37:32;;;;;;;2.60;2.40;;;;;;;;;;4985658;28;20194;-78
2023/09/04 11:40:00;;;;;;;2.77;1.90;;;;;;;;;;5010162;28;20190;-78
2023/09/04 11:42:29;;;;;;;2.33;1.93;;;;;;;;;;5011708;28;20219;-78
2023/09/04 11:44:55;;;;;;;2.13;1.93;;;;;;;;;;5015479;28;20177;-78
2023/09/04 11:47:22;;;;;;;2.97;1.97;;;;;;;;;;5028180;28;20210;-78
2023/09/04 11:49:49;;;;;;;2.00;1.90;;;;;;;;;;5013240;28;20202;-78
2023/09/04 11:52:17;;;;;;;3.70;1.90;;;;;;;;;;5013460;28;20215;-78
2023/09/04 11:54:43;;;;;;;2.07;1.87;;;;;;;;;;5017727;28;20646;-78
2023/09/04 11:57:12;;;;;;;1.83;1.73;;;;;;;;;;5012219;28;20189;-78
2023/09/04 11:59:40;;;;;;;2.27;2.07;;;;;;;;;;5010463;28;20974;-78
2023/09/04 12:02:07;;;;;;;2.40;2.20;;;;;;;;;;5003582;28;20758;-78
2023/09/04 12:04:33;;;;;;;2.33;2.00;;;;;;;;;;5012846;28;20306;-78
2023/09/04 12:07:00;;;;;;;2.03;1.90;;;;;;;;;;5013861;28;20182;-78
2023/09/04 12:09:27;;;;;;;2.10;1.90;;;;;;;;;;5013507;28;20190;-77
2023/09/04 12:11:54;;;;;;;2.13;1.90;;;;;;;;;;4991435;28;20432;-77
2023/09/04 12:14:20;;;;;;;1.97;1.80;;;;;;;;;;5006520;28;20197;-77
2023/09/04 12:16:47;;;;;;;2.37;2.07;;;;;;;;;;4993869;28;20626;-77
2023/09/04 12:19:15;;;;;;;2.50;2.10;;;;;;;;;;5010542;28;20182;-78
2023/09/04 12:21:44;;;;;;;2.23;2.03;;;;;;;;;;5034348;28;20209;-78
2023/09/04 12:24:14;;;;;;;2.53;2.20;;;;;;;;;;5017905;28;20210;-77
2023/09/04 12:26:41;;;;;;;2.97;1.70;;;;;;;;;;5009107;28;20179;-77
2023/09/04 12:29:11;;;;;;;2.13;1.93;;;;;;;;;;5006980;28;20194;-77
2023/09/04 12:31:38;;;;;;;2.20;2.00;;;;;;;;;;4995477;28;20674;-77
2023/09/04 12:34:04;;;;;;;1.97;1.87;;;;;;;;;;4996978;28;20610;-77
2023/09/04 12:36:32;;;;;;;2.23;2.03;;;;;;;;;;5012338;28;20548;-77
2023/09/04 12:38:58;;;;;;;2.70;2.20;;;;;;;;;;5026107;28;20192;-78
2023/09/04 12:41:25;;;;;;;7.67;2.17;;;;;;;;;;5010008;28;20180;-78
2023/09/04 12:43:51;;;;;;;5.20;2.40;;;;;;;;;;5011575;28;20240;-78
2023/09/04 12:46:17;;;;;;;5.43;2.20;;;;;;;;;;5000313;28;20429;-78
2023/09/04 12:48:44;;;;;;;10.83;2.60;;;;;;;;;;5013774;28;20254;-78
2023/09/04 12:51:11;;;;;;;6.37;2.60;;;;;;;;;;5012589;28;20243;-78
2023/09/04 12:53:40;;;;;;;2.47;2.23;;;;;;;;;;5027502;28;20182;-79
2023/09/04 12:56:09;;;;;;;2.50;2.30;;;;;;;;;;5014486;28;20584;-78
2023/09/04 12:58:38;;;;;;;3.20;2.10;;;;;;;;;;5019512;28;20956;-78
2023/09/04 13:01:05;;;;;;;3.20;2.30;;;;;;;;;;5032863;28;20191;-78
2023/09/04 13:03:33;;;;;;;2.17;1.97;;;;;;;;;;5029954;28;20229;-78
2023/09/04 13:05:59;;;;;;;3.40;1.97;;;;;;;;;;5021191;28;20272;-78
2023/09/04 13:08:26;;;;;;;2.20;2.00;;;;;;;;;;5013566;28;20272;-78
2023/09/04 13:10:54;;;;;;;2.00;1.90;;;;;;;;;;5021854;28;20302;-77
2023/09/04 13:13:20;;;;;;;2.17;2.00;;;;;;;;;;5013964;28;20218;-77
2023/09/04 13:15:46;;;;;;;2.80;2.10;;;;;;;;;;5015199;28;20220;-78
2023/09/04 13:18:13;;;;;;;2.33;1.87;;;;;;;;;;5019411;28;20192;-78
2023/09/04 13:20:39;;;;;;;3.27;1.93;;;;;;;;;;5012824;28;20182;-78
2023/09/04 13:23:11;;;;;;;2.33;2.13;;;;;;;;;;4998733;28;20734;-78
2023/09/04 13:25:39;;;;;;;2.30;2.10;;;;;;;;;;5011644;28;20491;-78
2023/09/04 13:28:05;;;;;;;2.90;2.00;;;;;;;;;;5019129;28;20193;-78
2023/09/04 13:30:32;;;;;;;2.53;2.07;;;;;;;;;;5036752;28;20210;-78
2023/09/04 13:32:58;;;;;;;3.13;2.13;;;;;;;;;;5009893;28;20283;-78
2023/09/04 13:35:24;;;;;;;2.43;2.23;;;;;;;;;;4995922;28;20192;-78
2023/09/04 13:37:53;;;;;;;2.30;2.10;;;;;;;;;;4995552;28;20192;-78
2023/09/04 13:40:19;;;;;;;2.30;2.10;;;;;;;;;;5007973;28;20706;-78
2023/09/04 13:42:45;;;;;;;2.50;2.00;;;;;;;;;;5006556;28;20785;-78
2023/09/04 13:45:11;;;;;;;2.47;2.20;;;;;;;;;;5008554;28;20186;-77
2023/09/04 13:47:37;;;;;;;2.83;1.70;;;;;;;;;;5007965;28;20220;-78
2023/09/04 13:50:04;;;;;;;2.20;2.00;;;;;;;;;;5009827;28;20196;-78
2023/09/04 13:52:30;;;;;;;2.40;2.00;;;;;;;;;;5010237;28;20209;-78
2023/09/04 13:54:56;;;;;;;2.10;1.90;;;;;;;;;;5014291;28;20214;-78
2023/09/04 13:57:24;;;;;;;2.75;2.20;;;;;;;;;;5012674;28;20237;-78
2023/09/04 13:59:50;;;;;;;2.42;2.22;;;;;;;;;;4992140;28;20585;-78
2023/09/04 14:02:16;;;;;;;1.85;1.75;;;;;;;;;;5005047;28;20218;-78
2023/09/04 14:04:43;;;;;;;1.92;1.83;;;;;;;;;;5005466;28;20183;-78
2023/09/04 14:07:09;;;;;;;2.10;1.90;;;;;;;;;;5009315;28;20183;-78
2023/09/04 14:09:35;;;;;;;2.20;2.00;;;;;;;;;;5008469;28;20214;-78
2023/09/04 14:12:01;;;;;;;2.13;1.92;;;;;;;;;;5008817;28;20204;-78
2023/09/04 14:14:27;;;;;;;2.67;2.08;;;;;;;;;;5011099;28;20194;-77
2023/09/04 14:16:53;;;;;;;2.17;1.98;;;;;;;;;;5012417;28;20764;-78
2023/09/04 14:19:20;;;;;;;1.92;1.80;;;;;;;;;;5012764;28;20183;-78
2023/09/04 14:21:46;;;;;;;2.80;2.00;;;;;;;;;;4994486;28;20293;-78
2023/09/04 14:24:18;;;;;;;1.95;1.85;;;;;;;;;;5011515;28;20296;-78
2023/09/04 14:26:44;;;;;;;2.38;2.17;;;;;;;;;;5008020;28;20289;-78
2023/09/04 14:29:11;;;;;;;2.10;1.90;;;;;;;;;;5011541;28;20187;-78
2023/09/04 14:31:37;;;;;;;1.90;1.80;;;;;;;;;;5012925;28;20227;-78
2023/09/04 14:34:03;;;;;;;2.15;1.95;;;;;;;;;;5012395;28;20183;-78
2023/09/04 14:36:30;;;;;;;1.95;1.85;;;;;;;;;;5010789;28;20219;-78
2023/09/04 14:38:56;;;;;;;2.00;1.80;;;;;;;;;;5011342;28;20190;-78
2023/09/04 14:41:28;;;;;;;2.33;2.13;;;;;;;;;;5001557;28;20670;-78
2023/09/04 14:43:54;;;;;;;2.05;1.90;;;;;;;;;;5013188;28;20261;-78